Aviation Digital Data Service (ADDS)

Output produced by TAFs form (1359 UTC 20 September 2014)
found at http://aviationweather.gov/adds/tafs/
 
KAMA 201340Z 2014/2112 17007KT P6SM SCT005 
     TEMPO 2014/2015 BKN005 
     FM201500 15009KT P6SM SCT050 
     FM210900 16005KT 6SM BR SCT015 BKN025